Albany, GA (31708)

12:58 PM EST on December 25, 2014 (GMT -0500)
Grand Island Club | Change Station
CLOSE
Current Station
Personal Weather Station
Location: Albany, GA
Elevation: 266 ft
Nearby Weather Stations

Elev 266 ft 31.62 °N, 84.21 °W | Updated 3 minutes ago

Clear
Clear
55.0 °F
Feels Like 55.0 °F
N
1.0
Wind Variable Wind from WNW
Gusts 7.0 mph

Today
High -- | Low -- °F
--% Chance of Precip.
Yesterday
High -- | Low -- °F
Precip. -- in
7:33 AM 5:39 PM
Waxing Crescent, 18% visible
Pressure 30.25 in
Visibility 10.0 miles
Clouds Clear
Dew Point 40 °F
Humidity 56%
Rainfall 0.00 in
Snow Depth Not available.
UV 4 out of 12
Pollen .30 out of 12
Air Quality Not available.
Flu Activity Not available.
METAR KABY 251753Z 30004KT 10SM CLR 13/02 A3024 RMK AO2 SLP241 T01280017 10133 20072 58006

More Conditions Fewer Conditions

Pressure 30.25 in
Visibility 10.0 miles
Clouds Clear
Dew Point 40 °F
Humidity 56%
Rainfall 0.00 in
Snow Depth Not available.
UV 4 out of 12
Pollen .30 out of 12
Air Quality Not available.
Flu Activity Not available.
METAR KABY 251753Z 30004KT 10SM CLR 13/02 A3024 RMK AO2 SLP241 T01280017 10133 20072 58006

More Conditions Fewer Conditions

10-Day Weather Forecast

Almanac

Astronomy

Dec. 25, 2014 Rise Set
Actual Time
Civil Twilight
Nautical Twilight
Astronomical Twilight
Moon
Length of Visible Light
Length of Day
Tomorrow will be .
, % of the Moon is Illuminated

Today's Extremes

State Highs State Lows

Community

WunderPhotos

Upload Photos

1,780,351 photos uploaded!

WunderBlogs® & News

Nearby

Air Quality

  Air Quality AQ Index Pollutant
Not available.

Snow Depth

Station Depth Elevation

Earthquake Activity

City Distance Mag. Time & Date
Minimum magnitude displayed is 2.5.

Coastal Water Temperatures

Place Temperature

Nearby Weather Stations